»·PEaware :: N103K KTMK-S59

N103K :: KTMK-S59

FLIGHT INFORMATION

Flight Status: Arrived
Operator: Privately registered:
United States
More flights under this callsign
Pilot: Andrew C. (28419)
Aircraft: SOCATA TBM-900
(TBM9)
More flights by this aircraft type
Origin: KTMK Tillamook
United States
Destination: S59 Libby
United States
More flights between these airports :: More routes between these airports
Route: +BTG J136 HILIE CLASS
File this flight plan on PilotEdge
Remarks: RMK / SIMBRIEF
Altitude:
(Current/Filed)
29,000ft
Speed:
(Current/Filed)
317kts
Departed: 24-Oct-20 01:17 PM
Arrived: 24-Oct-20 02:46 PM
Distance/Time
Traveled:
382nm/1:29
Distance/Time
To Go:
Arrived

Flight Plot

Page will automatically refresh every two minutes.

Flight plan parsing failed; only flown route is shown


Map Options




Map Legend


Flown Route
Filed Route
Departure Airport
Arrival Airport
Navaid (VOR, NDB)
Fix

Horizontal Profiles

Position Reports

Time Latitude Longitude Heading Altitude Ground
Speed
24-Oct-20 12:59 45.419624 -123.818207 160 26ft 0kts
24-Oct-20 13:00 45.419624 -123.818207 160 26ft 0kts
24-Oct-20 13:01 45.419624 -123.818207 160 26ft 0kts
24-Oct-20 13:02 45.419624 -123.818207 160 26ft 0kts
24-Oct-20 13:03 45.419624 -123.818207 160 26ft 0kts
24-Oct-20 13:04 45.419624 -123.818207 160 26ft 0kts
24-Oct-20 13:05 45.419601 -123.818195 160 26ft 0kts
24-Oct-20 13:06 45.419601 -123.818195 160 26ft 0kts
24-Oct-20 13:07 45.419601 -123.818195 160 26ft 0kts
24-Oct-20 13:08 45.419601 -123.818195 160 26ft 0kts
24-Oct-20 13:09 45.419601 -123.818195 160 26ft 0kts
24-Oct-20 13:10 45.419601 -123.818195 160 26ft 0kts
24-Oct-20 13:11 45.419601 -123.818195 160 26ft 0kts
24-Oct-20 13:12 45.419601 -123.818195 160 26ft 0kts
24-Oct-20 13:13 45.419116 -123.817810 149 27ft 10kts
24-Oct-20 13:14 45.416277 -123.816806 167 31ft 5kts
24-Oct-20 13:15 45.415768 -123.816643 166 31ft 0kts
24-Oct-20 13:16 45.418891 -123.813161 34 39ft 104kts
24-Oct-20 13:17 45.431463 -123.770909 73 2701ft 130kts
24-Oct-20 13:18 45.443398 -123.723387 69 5531ft 129kts
24-Oct-20 13:19 45.456823 -123.674350 67 8347ft 137kts
24-Oct-20 13:20 45.470967 -123.622323 57 10977ft 149kts
24-Oct-20 13:21 45.486211 -123.566947 49 13850ft 152kts
24-Oct-20 13:22 45.501891 -123.509752 45 16410ft 158kts
24-Oct-20 13:23 45.518035 -123.450676 43 18703ft 163kts
24-Oct-20 13:24 45.536413 -123.383599 48 20732ft 209kts
24-Oct-20 13:25 45.558184 -123.302809 49 22947ft 223kts
24-Oct-20 13:26 45.580917 -123.218658 50 24917ft 233kts
24-Oct-20 13:27 45.604667 -123.130426 50 26629ft 242kts
24-Oct-20 13:28 45.628929 -123.039912 50 28152ft 248kts
24-Oct-20 13:29 45.654821 -122.943534 52 29256ft 285kts
24-Oct-20 13:30 45.685334 -122.828555 54 29262ft 324kts
24-Oct-20 13:31 45.718174 -122.704175 54 29257ft 336kts
24-Oct-20 13:33 45.752727 -122.579463 44 29254ft 325kts
24-Oct-20 13:34 45.797745 -122.465866 43 29256ft 325kts
24-Oct-20 13:35 45.842544 -122.352612 43 29256ft 324kts
24-Oct-20 13:36 45.887183 -122.239358 43 29245ft 323kts
24-Oct-20 13:37 45.931485 -122.126452 43 29251ft 322kts
24-Oct-20 13:38 45.975575 -122.013668 43 29286ft 321kts
24-Oct-20 13:39 46.019739 -121.900195 43 29318ft 323kts
24-Oct-20 13:40 46.063836 -121.786434 43 29316ft 324kts
24-Oct-20 13:41 46.107897 -121.672289 43 29328ft 323kts
24-Oct-20 13:42 46.151891 -121.557840 43 29328ft 327kts
24-Oct-20 13:43 46.196168 -121.442085 43 29325ft 329kts
24-Oct-20 13:44 46.240222 -121.326549 44 29296ft 328kts
24-Oct-20 13:45 46.283825 -121.211664 44 29288ft 326kts
24-Oct-20 13:46 46.327259 -121.096753 44 29314ft 326kts
24-Oct-20 13:47 46.369501 -120.984486 44 29338ft 326kts
24-Oct-20 13:48 46.412478 -120.869948 44 29025ft 335kts
24-Oct-20 13:49 46.453495 -120.759906 44 29000ft 331kts
24-Oct-20 13:50 46.496276 -120.644780 44 29000ft 328kts
24-Oct-20 13:50 46.532236 -120.547690 44 29012ft 328kts
24-Oct-20 13:52 46.582701 -120.411100 43 29003ft 328kts
24-Oct-20 13:52 46.618945 -120.313410 44 28998ft 329kts
24-Oct-20 13:54 46.669696 -120.175977 45 28997ft 329kts
24-Oct-20 13:54 46.705956 -120.077371 44 29000ft 329kts
24-Oct-20 13:55 46.749229 -119.959296 45 28998ft 330kts
24-Oct-20 13:56 46.792683 -119.840048 45 28995ft 330kts
24-Oct-20 13:57 46.835951 -119.720850 45 28996ft 330kts
24-Oct-20 13:58 46.879031 -119.601641 46 28997ft 330kts
24-Oct-20 13:59 46.922030 -119.482067 45 28997ft 329kts
24-Oct-20 14:00 46.964627 -119.363125 46 28998ft 330kts
24-Oct-20 14:01 47.007493 -119.242886 47 28988ft 330kts
24-Oct-20 14:02 47.049876 -119.123467 47 28988ft 330kts
24-Oct-20 14:03 47.092369 -119.003172 47 28989ft 330kts
24-Oct-20 14:04 47.134761 -118.882678 47 29008ft 332kts
24-Oct-20 14:05 47.177296 -118.761132 47 29008ft 334kts
24-Oct-20 14:06 47.219824 -118.639066 47 29008ft 334kts
24-Oct-20 14:07 47.262145 -118.517044 47 29008ft 334kts
24-Oct-20 14:08 47.303822 -118.396334 47 29339ft 329kts
24-Oct-20 14:09 47.345665 -118.274551 48 29329ft 332kts
24-Oct-20 14:10 47.387526 -118.152185 48 29331ft 332kts
24-Oct-20 14:11 47.429298 -118.029444 48 29330ft 333kts
24-Oct-20 14:12 47.471115 -117.906022 48 29321ft 334kts
24-Oct-20 14:13 47.512846 -117.782244 48 29319ft 333kts
24-Oct-20 14:14 47.552425 -117.664245 49 29322ft 334kts
24-Oct-20 14:15 47.560951 -117.516777 86 29327ft 380kts
24-Oct-20 14:16 47.552456 -117.360979 83 29328ft 378kts
24-Oct-20 14:17 47.544780 -117.203389 84 28548ft 386kts
24-Oct-20 14:18 47.536926 -117.047048 85 26891ft 383kts
24-Oct-20 14:19 47.528776 -116.889281 85 25194ft 379kts
24-Oct-20 14:20 47.520601 -116.735652 85 24319ft 361kts
24-Oct-20 14:21 47.560225 -116.623507 34 24322ft 299kts
24-Oct-20 14:22 47.617030 -116.533091 34 24322ft 297kts
24-Oct-20 14:23 47.673262 -116.443575 34 24321ft 296kts
24-Oct-20 14:24 47.729524 -116.353715 35 24321ft 295kts
24-Oct-20 14:25 47.785916 -116.263350 36 24314ft 294kts
24-Oct-20 14:26 47.841860 -116.173424 36 24159ft 299kts
24-Oct-20 14:27 47.907692 -116.098624 25 22412ft 298kts
24-Oct-20 14:28 47.976637 -116.030708 27 20373ft 296kts
24-Oct-20 14:29 48.044757 -115.963322 28 18561ft 288kts
24-Oct-20 14:30 48.111575 -115.897042 29 17255ft 277kts
24-Oct-20 14:31 48.174056 -115.834888 30 16068ft 264kts
24-Oct-20 14:32 48.235028 -115.774061 31 14908ft 262kts
24-Oct-20 14:33 48.295742 -115.713302 32 13749ft 262kts
24-Oct-20 14:34 48.356631 -115.652194 32 12586ft 263kts
24-Oct-20 14:35 48.420289 -115.588118 33 11369ft 263kts
24-Oct-20 14:36 48.483233 -115.533111 26 10716ft 231kts
24-Oct-20 14:37 48.543448 -115.528637 302 8871ft 243kts
24-Oct-20 14:38 48.510076 -115.577344 158 7935ft 196kts
24-Oct-20 14:39 48.456990 -115.556916 167 7894ft 189kts
24-Oct-20 14:40 48.406634 -115.538832 159 7900ft 184kts
24-Oct-20 14:41 48.359451 -115.520914 162 6250ft 125kts
24-Oct-20 14:42 48.333912 -115.510084 158 4664ft 85kts
24-Oct-20 14:43 48.310073 -115.500603 160 3530ft 85kts
24-Oct-20 14:44 48.287610 -115.491755 164 2598ft 72kts
24-Oct-20 14:45 48.278627 -115.488173 163 2613ft 36kts
24-Oct-20 14:46 48.280762 -115.487775 345 2612ft 18kts

Navigation Log

Ident Type
Flight plan parsing failed, navigation log unavailable